createdAt,value
2023-05-14T00:00:31.810Z,11.63
2023-05-14T00:02:59.496Z,8.65
2023-05-14T00:05:27.214Z,8.65
2023-05-14T00:07:54.033Z,6.03
2023-05-14T00:10:22.259Z,9.40
2023-05-14T00:12:49.272Z,5.68
2023-05-14T00:15:16.133Z,7.47
2023-05-14T00:17:43.018Z,6.47
2023-05-14T00:20:12.558Z,9.43
2023-05-14T00:22:40.237Z,6.45
2023-05-14T00:25:08.330Z,6.20
2023-05-14T00:27:37.879Z,7.93
2023-05-14T00:30:07.032Z,6.82
2023-05-14T00:32:34.230Z,5.72
2023-05-14T00:35:03.263Z,7.43
2023-05-14T00:37:30.361Z,8.10
2023-05-14T00:39:57.254Z,6.65
2023-05-14T00:42:24.121Z,5.78
2023-05-14T00:44:50.933Z,6.30
2023-05-14T00:47:18.944Z,6.15
2023-05-14T00:49:47.243Z,6.63
2023-05-14T00:52:15.387Z,7.70
2023-05-14T00:54:43.158Z,7.65
2023-05-14T00:57:10.232Z,6.32
2023-05-14T00:59:37.093Z,8.52
2023-05-14T01:02:04.018Z,6.53
2023-05-14T01:04:30.880Z,7.95
2023-05-14T01:07:18.775Z,5.85
2023-05-14T01:10:02.633Z,5.05
2023-05-14T01:13:06.530Z,7.93
2023-05-14T01:15:36.335Z,7.00
2023-05-14T01:18:09.834Z,8.50
2023-05-14T01:20:37.019Z,6.25
2023-05-14T01:23:04.170Z,6.93
2023-05-14T01:25:31.754Z,9.18
2023-05-14T01:28:17.583Z,5.47
2023-05-14T01:31:09.299Z,9.20
2023-05-14T01:33:37.137Z,6.13
2023-05-14T01:36:04.912Z,8.18
2023-05-14T01:38:34.250Z,7.07
2023-05-14T01:41:02.259Z,7.72
2023-05-14T01:43:30.135Z,7.28
2023-05-14T01:45:57.176Z,5.90
2023-05-14T01:48:24.453Z,7.43
2023-05-14T01:50:51.971Z,5.45
2023-05-14T01:53:19.850Z,8.07
2023-05-14T01:55:46.957Z,9.00
2023-05-14T01:58:13.768Z,7.32
2023-05-14T02:00:40.969Z,7.60
2023-05-14T02:03:07.911Z,5.95
2023-05-14T02:05:34.751Z,5.70
2023-05-14T02:08:02.278Z,5.35
2023-05-14T02:10:29.108Z,5.82
2023-05-14T02:12:56.497Z,6.03
2023-05-14T02:15:23.390Z,8.13
2023-05-14T02:17:50.658Z,5.78
2023-05-14T02:20:20.451Z,5.47
2023-05-14T02:22:48.456Z,8.60
2023-05-14T02:25:15.909Z,4.80
2023-05-14T02:27:43.226Z,9.13
2023-05-14T02:30:11.491Z,7.95
2023-05-14T02:32:38.755Z,5.43
2023-05-14T02:35:06.184Z,4.70
2023-05-14T02:37:35.360Z,6.28
2023-05-14T02:40:02.702Z,7.70
2023-05-14T02:42:30.115Z,9.32
2023-05-14T02:44:56.932Z,4.95
2023-05-14T02:47:23.763Z,6.00
2023-05-14T02:49:51.340Z,5.88
2023-05-14T02:52:19.205Z,6.47
2023-05-14T02:54:46.153Z,5.75
2023-05-14T02:57:13.696Z,7.78
2023-05-14T02:59:40.525Z,7.80
2023-05-14T03:02:07.799Z,9.20
2023-05-14T03:04:34.950Z,9.25
2023-05-14T03:07:01.777Z,11.23
2023-05-14T03:09:28.546Z,7.15
2023-05-14T03:11:55.495Z,7.85
2023-05-14T03:14:23.801Z,6.40
2023-05-14T03:16:50.775Z,7.00
2023-05-14T03:19:17.646Z,5.88
2023-05-14T03:21:44.680Z,5.68
2023-05-14T03:24:11.592Z,7.22
2023-05-14T03:26:39.392Z,5.25
2023-05-14T03:29:06.164Z,7.47
2023-05-14T03:31:33.016Z,6.18
2023-05-14T03:33:59.868Z,7.53
2023-05-14T03:36:27.770Z,6.45
2023-05-14T03:38:54.703Z,6.78
2023-05-14T03:41:23.009Z,6.63
2023-05-14T03:43:49.869Z,7.50
2023-05-14T03:46:16.729Z,6.78
2023-05-14T03:48:43.669Z,10.98
2023-05-14T03:51:11.086Z,6.40
2023-05-14T03:53:39.211Z,7.38
2023-05-14T03:56:06.213Z,7.57
2023-05-14T03:58:33.205Z,9.60
2023-05-14T04:01:00.511Z,6.50
2023-05-14T04:03:28.985Z,9.77
2023-05-14T04:05:55.934Z,8.40
2023-05-14T04:08:22.744Z,6.97
2023-05-14T04:10:50.128Z,10.18
2023-05-14T04:13:18.035Z,6.65
2023-05-14T04:15:45.414Z,7.30
2023-05-14T04:18:12.392Z,8.05
2023-05-14T04:20:39.329Z,9.15
2023-05-14T04:23:06.180Z,7.07
2023-05-14T04:25:33.068Z,11.20
2023-05-14T04:28:00.250Z,6.65
2023-05-14T04:30:27.075Z,6.43
2023-05-14T04:32:54.379Z,14.70
2023-05-14T04:35:24.140Z,7.00
2023-05-14T04:37:52.497Z,9.60
2023-05-14T04:40:19.504Z,6.07
2023-05-14T04:42:47.753Z,8.13
2023-05-14T04:45:14.900Z,6.50
2023-05-14T04:47:41.859Z,7.57
2023-05-14T04:50:10.040Z,10.90
2023-05-14T04:52:38.362Z,8.80
2023-05-14T04:55:05.829Z,9.73
2023-05-14T04:57:32.671Z,7.63
2023-05-14T05:00:01.055Z,6.30
2023-05-14T05:02:28.050Z,6.93
2023-05-14T05:04:54.889Z,7.97
2023-05-14T05:07:21.692Z,7.55
2023-05-14T05:09:50.113Z,12.05
2023-05-14T05:12:16.936Z,7.55
2023-05-14T05:14:43.761Z,7.90
2023-05-14T05:17:10.619Z,10.32
2023-05-14T05:19:43.686Z,11.82
2023-05-14T05:22:12.573Z,11.65
2023-05-14T05:24:39.596Z,9.60
2023-05-14T05:27:06.464Z,8.15
2023-05-14T05:29:33.683Z,9.10
2023-05-14T05:32:00.814Z,11.40
2023-05-14T05:34:28.049Z,11.85
2023-05-14T05:36:54.912Z,11.27
2023-05-14T05:39:22.792Z,9.27
2023-05-14T05:41:49.585Z,10.05
2023-05-14T05:44:16.445Z,9.57
2023-05-14T05:46:43.443Z,8.85
2023-05-14T05:49:11.476Z,10.85
2023-05-14T05:51:38.287Z,8.68
2023-05-14T05:54:05.161Z,11.20
2023-05-14T05:56:32.148Z,11.75
2023-05-14T05:59:00.206Z,11.93
2023-05-14T06:01:27.066Z,13.23
2023-05-14T06:03:53.906Z,12.57
2023-05-14T06:06:22.044Z,11.43
2023-05-14T06:08:49.255Z,12.75
2023-05-14T06:11:17.140Z,12.65
2023-05-14T06:13:44.030Z,12.70
2023-05-14T06:16:12.215Z,13.10
2023-05-14T06:18:39.561Z,18.42
2023-05-14T06:21:07.041Z,13.57
2023-05-14T06:23:33.976Z,16.20
2023-05-14T06:26:01.934Z,17.90
2023-05-14T06:28:30.548Z,21.88
2023-05-14T06:30:57.447Z,20.63
2023-05-14T06:33:30.914Z,19.10
2023-05-14T06:36:06.036Z,23.65
2023-05-14T06:38:33.016Z,24.35
2023-05-14T06:40:59.844Z,22.85
2023-05-14T06:43:26.787Z,20.85
2023-05-14T06:45:53.844Z,23.67
2023-05-14T06:48:21.075Z,21.33
2023-05-14T06:50:49.208Z,22.60
2023-05-14T06:53:16.612Z,26.05
2023-05-14T06:55:43.556Z,22.15
2023-05-14T06:58:10.992Z,22.30
2023-05-14T07:00:37.806Z,21.92
2023-05-14T07:03:04.849Z,20.60
2023-05-14T07:05:34.227Z,20.65
2023-05-14T07:08:01.124Z,24.00
2023-05-14T07:10:28.525Z,21.83
2023-05-14T07:12:55.428Z,22.70
2023-05-14T07:15:22.283Z,23.05
2023-05-14T07:17:49.787Z,19.85
2023-05-14T07:20:16.664Z,21.35
2023-05-14T07:22:44.864Z,20.02
2023-05-14T07:25:11.874Z,20.73
2023-05-14T07:27:38.944Z,22.95
2023-05-14T07:30:06.818Z,19.60
2023-05-14T07:32:33.954Z,23.10
2023-05-14T07:35:01.545Z,26.20
2023-05-14T07:37:28.920Z,24.20
2023-05-14T07:39:56.716Z,21.25
2023-05-14T07:42:35.360Z,20.10
2023-05-14T07:45:04.696Z,22.75
2023-05-14T07:47:31.836Z,22.10
2023-05-14T07:49:59.138Z,22.77
2023-05-14T07:52:26.078Z,18.08
2023-05-14T07:54:53.062Z,17.95
2023-05-14T07:57:20.337Z,21.92
2023-05-14T07:59:48.398Z,21.27
2023-05-14T08:02:17.038Z,18.25
2023-05-14T08:04:45.053Z,20.85
2023-05-14T08:07:13.357Z,18.55
2023-05-14T08:09:41.368Z,19.38
2023-05-14T08:12:08.640Z,19.00
2023-05-14T08:14:35.618Z,15.00
2023-05-14T08:17:02.611Z,17.10
2023-05-14T08:19:29.464Z,14.95
2023-05-14T08:21:57.597Z,15.05
2023-05-14T08:24:24.594Z,13.73
2023-05-14T08:26:51.438Z,18.20
2023-05-14T08:29:18.245Z,13.10
2023-05-14T08:31:46.589Z,16.77
2023-05-14T08:34:13.711Z,15.18
2023-05-14T08:36:40.690Z,15.15
2023-05-14T08:39:10.334Z,16.27
2023-05-14T08:41:40.596Z,14.82
2023-05-14T08:44:22.655Z,11.23
2023-05-14T08:46:50.717Z,10.00
2023-05-14T08:49:47.119Z,9.10
2023-05-14T08:52:15.720Z,9.32
2023-05-14T08:54:42.970Z,10.73
2023-05-14T08:57:10.840Z,11.18
2023-05-14T08:59:38.140Z,7.53
2023-05-14T09:02:06.992Z,6.43
2023-05-14T09:04:34.757Z,6.80
2023-05-14T09:07:02.432Z,6.93
2023-05-14T09:09:29.773Z,10.95
2023-05-14T09:11:58.072Z,10.10
2023-05-14T09:14:26.908Z,10.60
2023-05-14T09:16:54.867Z,10.20
2023-05-14T09:19:21.994Z,9.98
2023-05-14T09:21:49.885Z,7.30
2023-05-14T09:24:26.554Z,6.72
2023-05-14T09:26:54.927Z,6.57
2023-05-14T09:29:21.973Z,6.22
2023-05-14T09:31:52.926Z,6.05
2023-05-14T09:34:27.732Z,5.57
2023-05-14T09:36:59.333Z,5.55
2023-05-14T09:39:27.856Z,6.32
2023-05-14T09:41:55.088Z,5.85
2023-05-14T09:44:22.935Z,7.35
2023-05-14T09:46:51.002Z,9.25
2023-05-14T09:49:18.254Z,8.20
2023-05-14T09:51:45.368Z,8.30
2023-05-14T09:54:13.399Z,8.45
2023-05-14T09:56:40.416Z,6.70
2023-05-14T09:59:07.246Z,9.13
2023-05-14T10:01:37.249Z,8.02
2023-05-14T10:04:07.957Z,7.20
2023-05-14T10:06:38.083Z,7.80
2023-05-14T10:09:10.391Z,7.57
2023-05-14T10:11:38.873Z,6.32
2023-05-14T10:14:09.984Z,5.60
2023-05-14T10:16:47.274Z,5.53
2023-05-14T10:19:16.650Z,6.43
2023-05-14T10:21:48.504Z,5.68
2023-05-14T10:24:15.746Z,7.47
2023-05-14T10:26:43.002Z,7.55
2023-05-14T10:29:11.070Z,5.70
2023-05-14T10:31:55.544Z,9.98
2023-05-14T10:34:44.129Z,7.70
2023-05-14T10:37:26.441Z,5.32
2023-05-14T10:40:02.331Z,6.28
2023-05-14T10:42:36.400Z,6.63
2023-05-14T10:45:08.464Z,5.03
2023-05-14T10:47:48.822Z,5.60
2023-05-14T10:50:17.648Z,7.95
2023-05-14T10:52:46.362Z,6.40
2023-05-14T10:55:15.461Z,4.35
2023-05-14T10:57:44.519Z,6.40
2023-05-14T11:00:14.652Z,4.50
2023-05-14T11:02:45.124Z,4.35
2023-05-14T11:05:16.050Z,7.05
2023-05-14T11:07:50.888Z,4.20
2023-05-14T11:10:21.516Z,6.75
2023-05-14T11:12:56.053Z,3.78
2023-05-14T11:15:24.892Z,4.35
2023-05-14T11:17:53.256Z,4.03
2023-05-14T11:20:20.827Z,3.45
2023-05-14T11:22:49.271Z,3.75
2023-05-14T11:25:16.365Z,5.25
2023-05-14T11:27:44.672Z,4.20
2023-05-14T11:30:19.443Z,4.05
2023-05-14T11:32:48.502Z,4.60
2023-05-14T11:35:16.393Z,4.75
2023-05-14T11:37:44.144Z,5.60
2023-05-14T11:40:18.878Z,5.15
2023-05-14T11:42:46.022Z,5.38
2023-05-14T11:45:18.623Z,4.28
2023-05-14T11:47:45.462Z,4.15
2023-05-14T11:50:12.313Z,4.72
2023-05-14T11:52:42.548Z,3.95
2023-05-14T11:55:14.632Z,4.95
2023-05-14T11:57:41.660Z,4.15
2023-05-14T12:00:16.975Z,4.55
2023-05-14T12:02:46.397Z,5.05
2023-05-14T12:05:13.780Z,4.40
2023-05-14T12:07:42.015Z,5.00
2023-05-14T12:10:09.329Z,10.73
2023-05-14T12:12:42.257Z,4.05
2023-05-14T12:15:14.125Z,5.75
2023-05-14T12:17:42.307Z,4.00
2023-05-14T12:20:11.257Z,5.55
2023-05-14T12:22:39.496Z,6.40
2023-05-14T12:25:13.634Z,4.15
2023-05-14T12:27:40.858Z,4.55
2023-05-14T12:32:41.291Z,4.32
2023-05-14T12:35:09.299Z,6.07
2023-05-14T12:37:38.630Z,5.18
2023-05-14T12:40:15.564Z,4.63
2023-05-14T12:42:42.640Z,7.13
2023-05-14T12:45:12.488Z,5.85
2023-05-14T12:47:39.339Z,8.52
2023-05-14T12:50:08.228Z,5.65
2023-05-14T12:55:05.818Z,5.88
2023-05-14T12:57:32.700Z,6.18
2023-05-14T12:59:59.492Z,7.82
2023-05-14T13:02:26.357Z,7.10
2023-05-14T13:04:53.384Z,6.05
2023-05-14T13:07:20.261Z,5.90
2023-05-14T13:09:47.125Z,5.72
2023-05-14T13:12:14.015Z,5.82
2023-05-14T13:14:41.094Z,7.88
2023-05-14T13:17:08.383Z,11.00
2023-05-14T13:19:37.030Z,9.23
2023-05-14T13:22:04.083Z,8.85
2023-05-14T13:24:30.850Z,11.45
2023-05-14T13:26:59.181Z,11.30
2023-05-14T13:29:26.328Z,12.32
2023-05-14T13:31:53.220Z,9.52
2023-05-14T13:34:20.095Z,11.57
2023-05-14T13:36:47.371Z,11.52
2023-05-14T13:39:14.651Z,8.40
2023-05-14T13:41:41.813Z,8.68
2023-05-14T13:44:08.676Z,9.27
2023-05-14T13:46:35.752Z,9.88
2023-05-14T13:49:03.099Z,8.40
2023-05-14T13:51:29.999Z,7.32
2023-05-14T13:53:56.882Z,10.35
2023-05-14T13:56:24.338Z,9.02
2023-05-14T13:58:53.022Z,8.85
2023-05-14T14:01:20.157Z,11.95
2023-05-14T14:09:17.765Z,13.65
2023-05-14T14:11:44.895Z,11.32
2023-05-14T14:14:11.756Z,14.82
2023-05-14T14:16:38.735Z,12.52
2023-05-14T14:19:05.789Z,10.27
2023-05-14T14:21:32.894Z,15.73
2023-05-14T14:23:59.870Z,11.35
2023-05-14T14:26:28.205Z,11.85
2023-05-14T14:28:55.467Z,10.20
2023-05-14T14:31:22.358Z,11.27
2023-05-14T14:33:49.251Z,10.27
2023-05-14T14:36:16.175Z,12.73
2023-05-14T14:38:43.026Z,9.93
2023-05-14T14:41:10.360Z,10.10
2023-05-14T14:43:38.299Z,7.43
2023-05-14T14:46:05.399Z,16.08
2023-05-14T14:48:34.712Z,12.50
2023-05-14T14:51:01.723Z,10.65
2023-05-14T14:53:28.646Z,10.80
2023-05-14T14:55:56.106Z,8.93
2023-05-14T14:58:23.542Z,12.70
2023-05-14T15:00:52.847Z,10.43
2023-05-14T15:03:20.048Z,10.35
2023-05-14T15:05:47.556Z,15.13
2023-05-14T15:08:15.462Z,9.75
2023-05-14T15:10:42.454Z,8.75
2023-05-14T15:13:09.332Z,12.32
2023-05-14T15:15:36.458Z,10.30
2023-05-14T15:18:04.604Z,12.52
2023-05-14T15:20:31.674Z,9.55
2023-05-14T15:22:58.604Z,12.20
2023-05-14T15:25:26.766Z,8.32
2023-05-14T15:27:53.866Z,9.70
2023-05-14T15:30:20.736Z,8.85
2023-05-14T15:32:47.817Z,11.90
2023-05-14T15:35:14.735Z,11.32
2023-05-14T15:37:43.789Z,7.25
2023-05-14T15:40:11.999Z,9.52
2023-05-14T15:42:40.499Z,8.80
2023-05-14T15:45:07.904Z,9.20
2023-05-14T15:47:34.967Z,8.73
2023-05-14T15:50:02.342Z,8.90
2023-05-14T15:52:29.263Z,10.98
2023-05-14T15:54:57.541Z,8.50
2023-05-14T15:57:24.486Z,8.32
2023-05-14T15:59:51.685Z,9.30
2023-05-14T16:02:18.658Z,7.72
2023-05-14T16:04:45.648Z,11.40
2023-05-14T16:07:13.437Z,5.28
2023-05-14T16:09:41.828Z,5.07
2023-05-14T16:12:08.911Z,6.53
2023-05-14T16:14:36.298Z,9.05
2023-05-14T16:17:03.283Z,4.88
2023-05-14T16:19:32.955Z,4.40
2023-05-14T16:21:59.887Z,5.60
2023-05-14T16:24:26.848Z,3.70
2023-05-14T16:26:53.724Z,7.00
2023-05-14T16:29:20.664Z,5.07
2023-05-14T16:31:47.610Z,4.88
2023-05-14T16:34:14.544Z,4.65
2023-05-14T16:36:41.577Z,5.40
2023-05-14T16:39:08.813Z,5.35
2023-05-14T16:41:36.277Z,6.05
2023-05-14T16:44:03.554Z,3.42
2023-05-14T16:46:31.371Z,4.40
2023-05-14T16:48:58.357Z,3.95
2023-05-14T16:51:25.238Z,2.75
2023-05-14T16:53:52.212Z,3.85
2023-05-14T16:56:19.378Z,3.00
2023-05-14T16:58:46.213Z,2.83
2023-05-14T17:01:13.111Z,2.42
2023-05-14T17:03:39.966Z,3.35
2023-05-14T17:06:07.461Z,2.10
2023-05-14T17:08:35.802Z,4.45
2023-05-14T17:11:05.909Z,4.03
2023-05-14T17:13:33.461Z,3.28
2023-05-14T17:16:01.006Z,2.92
2023-05-14T17:18:28.117Z,4.60
2023-05-14T17:20:54.996Z,3.88
2023-05-14T17:23:24.071Z,4.10
2023-05-14T17:25:51.203Z,4.13
2023-05-14T17:28:18.048Z,5.18
2023-05-14T17:30:44.983Z,3.00
2023-05-14T17:33:12.024Z,2.35
2023-05-14T17:35:39.085Z,2.45
2023-05-14T17:38:06.026Z,4.85
2023-05-14T17:40:33.614Z,2.28
2023-05-14T17:43:00.859Z,2.35
2023-05-14T17:45:29.481Z,2.20
2023-05-14T17:47:59.227Z,3.00
2023-05-14T17:50:26.407Z,2.78
2023-05-14T17:52:54.403Z,3.70
2023-05-14T17:55:22.649Z,2.28
2023-05-14T17:57:49.932Z,2.78
2023-05-14T18:00:17.086Z,2.05
2023-05-14T18:02:44.075Z,4.32
2023-05-14T18:05:11.071Z,2.50
2023-05-14T18:07:37.929Z,4.47
2023-05-14T18:10:05.217Z,2.17
2023-05-14T18:12:32.115Z,4.70
2023-05-14T18:14:58.971Z,2.25
2023-05-14T18:17:25.878Z,2.05
2023-05-14T18:19:52.714Z,1.90
2023-05-14T18:22:21.666Z,2.92
2023-05-14T18:24:48.773Z,2.63
2023-05-14T18:27:15.853Z,3.20
2023-05-14T18:29:43.489Z,2.33
2023-05-14T18:32:10.428Z,3.55
2023-05-14T18:34:37.262Z,2.38
2023-05-14T18:37:04.130Z,1.75
2023-05-14T18:39:31.026Z,3.72
2023-05-14T18:41:57.980Z,1.80
2023-05-14T18:44:24.809Z,3.15
2023-05-14T18:46:51.996Z,3.08
2023-05-14T18:49:18.815Z,2.75
2023-05-14T18:51:45.708Z,4.55
2023-05-14T18:54:12.522Z,3.22
2023-05-14T18:56:41.361Z,4.20
2023-05-14T18:59:09.371Z,2.92
2023-05-14T19:01:36.611Z,3.00
2023-05-14T19:04:05.448Z,2.58
2023-05-14T19:06:32.895Z,3.05
2023-05-14T19:08:59.863Z,3.22
2023-05-14T19:11:26.713Z,3.42
2023-05-14T19:13:53.582Z,3.88
2023-05-14T19:16:21.383Z,3.15
2023-05-14T19:18:48.362Z,3.80
2023-05-14T19:21:15.500Z,3.83
2023-05-14T19:23:43.354Z,4.05
2023-05-14T19:26:10.268Z,5.28
2023-05-14T19:28:40.374Z,5.15
2023-05-14T19:31:07.267Z,2.85
2023-05-14T19:33:34.162Z,4.03
2023-05-14T19:36:01.278Z,4.20
2023-05-14T19:38:28.210Z,2.58
2023-05-14T19:40:57.065Z,4.57
2023-05-14T19:43:25.527Z,7.18
2023-05-14T19:45:52.572Z,3.67
2023-05-14T19:48:19.738Z,6.80
2023-05-14T19:50:47.366Z,4.68
2023-05-14T19:53:14.684Z,4.78
2023-05-14T19:55:41.903Z,4.50
2023-05-14T19:58:09.099Z,5.75
2023-05-14T20:00:37.145Z,3.70
2023-05-14T20:03:05.968Z,3.22
2023-05-14T20:05:34.534Z,4.40
2023-05-14T20:08:01.485Z,5.45
2023-05-14T20:10:28.656Z,3.15
2023-05-14T20:12:55.598Z,3.00
2023-05-14T20:15:22.455Z,5.18
2023-05-14T20:17:49.537Z,5.32
2023-05-14T20:20:16.820Z,3.65
2023-05-14T20:22:44.176Z,2.40
2023-05-14T20:25:11.110Z,2.58
2023-05-14T20:27:38.183Z,4.47
2023-05-14T20:30:05.980Z,2.42
2023-05-14T20:32:33.079Z,3.45
2023-05-14T20:35:02.289Z,4.13
2023-05-14T20:37:30.570Z,3.67
2023-05-14T20:39:58.786Z,4.20
2023-05-14T20:42:26.281Z,2.30
2023-05-14T20:44:53.828Z,4.25
2023-05-14T20:47:24.385Z,3.85
2023-05-14T20:49:51.414Z,2.88
2023-05-14T20:52:18.972Z,3.33
2023-05-14T20:54:46.141Z,3.03
2023-05-14T20:57:15.392Z,2.60
2023-05-14T20:59:42.766Z,2.60
2023-05-14T21:02:09.830Z,2.55
2023-05-14T21:04:37.022Z,2.35
2023-05-14T21:07:05.442Z,2.65
2023-05-14T21:09:32.313Z,5.05
2023-05-14T21:11:59.305Z,2.97
2023-05-14T21:14:26.209Z,2.50
2023-05-14T21:16:53.243Z,2.42
2023-05-14T21:19:20.270Z,2.38
2023-05-14T21:21:47.531Z,3.92
2023-05-14T21:24:16.835Z,4.07
2023-05-14T21:26:43.895Z,3.08
2023-05-14T21:29:11.201Z,6.43
2023-05-14T21:31:38.181Z,5.88
2023-05-14T21:34:05.187Z,4.65
2023-05-14T21:36:32.169Z,3.70
2023-05-14T21:38:58.992Z,6.00
2023-05-14T21:41:25.932Z,4.40
2023-05-14T21:43:52.833Z,6.20
2023-05-14T21:46:19.751Z,7.00
2023-05-14T21:48:46.687Z,6.85
2023-05-14T21:51:13.732Z,5.40
2023-05-14T21:53:40.633Z,8.20
2023-05-14T21:56:08.306Z,7.95
2023-05-14T21:58:35.923Z,5.70
2023-05-14T22:01:02.920Z,7.10
2023-05-14T22:03:29.827Z,6.72
2023-05-14T22:06:00.559Z,7.13
2023-05-14T22:08:27.749Z,7.97
2023-05-14T22:10:55.575Z,6.65
2023-05-14T22:13:22.631Z,6.82
2023-05-14T22:15:51.359Z,7.72
2023-05-14T22:18:22.340Z,7.22
2023-05-14T22:20:49.209Z,11.63
2023-05-14T22:23:16.109Z,5.82
2023-05-14T22:25:42.981Z,10.60
2023-05-14T22:28:09.821Z,7.20
2023-05-14T22:30:36.751Z,9.27
2023-05-14T22:33:03.618Z,6.85
2023-05-14T22:35:30.600Z,6.05
2023-05-14T22:37:57.420Z,5.68
2023-05-14T22:40:24.226Z,5.70
2023-05-14T22:42:51.174Z,7.43
2023-05-14T22:45:17.980Z,9.35
2023-05-14T22:47:44.879Z,8.15
2023-05-14T22:50:11.844Z,6.07
2023-05-14T22:52:40.979Z,6.50
2023-05-14T22:55:08.462Z,6.18
2023-05-14T22:57:35.406Z,6.95
2023-05-14T23:00:13.347Z,7.78
2023-05-14T23:02:40.345Z,7.47
2023-05-14T23:05:08.640Z,5.53
2023-05-14T23:07:35.665Z,5.03
2023-05-14T23:10:02.542Z,5.20
2023-05-14T23:12:29.389Z,7.28
2023-05-14T23:14:56.203Z,7.30
2023-05-14T23:17:23.334Z,5.95
2023-05-14T23:19:50.476Z,6.10
2023-05-14T23:22:17.454Z,8.02
2023-05-14T23:24:44.339Z,5.70
2023-05-14T23:27:11.857Z,5.63
2023-05-14T23:29:38.710Z,6.93
2023-05-14T23:32:05.884Z,5.65
2023-05-14T23:34:33.240Z,4.88
2023-05-14T23:37:00.146Z,4.90
2023-05-14T23:39:26.988Z,9.73
2023-05-14T23:41:53.799Z,5.38
2023-05-14T23:44:20.624Z,4.88
2023-05-14T23:46:47.545Z,5.88
2023-05-14T23:49:14.397Z,4.78
2023-05-14T23:51:41.207Z,5.10
2023-05-14T23:54:08.075Z,8.60
2023-05-14T23:56:35.647Z,7.18
2023-05-14T23:59:03.748Z,5.35
